Time,TemperatureF,DewpointF,PressureIn,WindDirection,WindDirectionDegrees,WindSpeedMPH,WindSpeedGustMPH,Humidity,HourlyPrecipIn,Conditions,Clouds,dailyrainin,SoftwareType,DateUTC
2013-03-14 00:04:00,26.8,19.0,29.98,SSE,158,0.0,0.0,72,0.00,,,0.00,WUHU216HW,2013-03-14 00:04:00,
2013-03-14 00:09:00,27.0,19.4,29.98,SSE,158,0.0,0.0,73,0.00,,,0.00,WUHU216HW,2013-03-14 00:09:00,
2013-03-14 00:14:00,26.6,19.1,29.98,SSE,158,0.0,0.0,73,0.00,,,0.00,WUHU216HW,2013-03-14 00:14:00,
2013-03-14 00:19:00,26.6,19.1,29.98,SSE,158,0.0,0.0,73,0.00,,,0.00,WUHU216HW,2013-03-14 00:19:00,
2013-03-14 00:24:00,26.5,18.9,29.98,SSE,158,0.0,0.0,73,0.00,,,0.00,WUHU216HW,2013-03-14 00:24:00,
2013-03-14 00:29:00,26.5,18.9,29.98,SSE,158,0.0,0.0,73,0.00,,,0.00,WUHU216HW,2013-03-14 00:29:00,
2013-03-14 00:34:00,26.5,18.9,29.98,SSE,158,0.0,0.0,73,0.00,,,0.00,WUHU216HW,2013-03-14 00:34:00,
2013-03-14 00:39:00,26.6,19.5,29.98,SSE,158,0.0,0.0,74,0.00,,,0.00,WUHU216HW,2013-03-14 00:39:00,
2013-03-14 00:44:00,26.6,19.5,29.98,SSE,158,0.0,0.0,74,0.00,,,0.00,WUHU216HW,2013-03-14 00:44:00,
2013-03-14 00:49:00,26.3,19.1,29.98,SSE,158,0.0,0.0,74,0.00,,,0.00,WUHU216HW,2013-03-14 00:49:00,
2013-03-14 00:54:00,26.3,19.1,29.98,SSE,158,0.2,0.2,74,0.00,,,0.00,WUHU216HW,2013-03-14 00:54:00,
2013-03-14 00:59:00,26.3,19.1,29.98,SSE,158,0.0,0.4,74,0.00,,,0.00,WUHU216HW,2013-03-14 00:59:00,
2013-03-14 01:04:00,26.6,19.7,29.98,SSE,158,0.4,0.4,75,0.00,,,0.00,WUHU216HW,2013-03-14 01:04:00,
2013-03-14 01:09:00,26.8,19.9,29.98,SSE,158,0.0,0.4,75,0.00,,,0.00,WUHU216HW,2013-03-14 01:09:00,
2013-03-14 01:14:00,27.0,20.1,29.97,SSE,158,0.0,0.4,75,0.00,,,0.00,WUHU216HW,2013-03-14 01:14:00,
2013-03-14 01:19:00,27.0,19.8,29.97,SSE,158,0.0,0.0,74,0.00,,,0.00,WUHU216HW,2013-03-14 01:19:00,
2013-03-14 01:24:00,26.8,19.9,29.97,SSE,158,0.0,0.0,75,0.00,,,0.00,WUHU216HW,2013-03-14 01:24:00,
2013-03-14 01:29:00,26.8,19.9,29.97,SSE,158,0.0,0.0,75,0.00,,,0.00,WUHU216HW,2013-03-14 01:29:00,
2013-03-14 01:34:00,26.8,19.9,29.97,SSE,158,0.4,0.4,75,0.00,,,0.00,WUHU216HW,2013-03-14 01:34:00,
2013-03-14 01:39:00,27.0,20.1,29.97,SSE,158,0.0,0.7,75,0.00,,,0.00,WUHU216HW,2013-03-14 01:39:00,
2013-03-14 01:44:00,27.0,20.1,29.97,SSE,158,0.7,0.7,75,0.00,,,0.00,WUHU216HW,2013-03-14 01:44:00,
2013-03-14 01:49:00,27.2,20.3,29.97,SSE,158,0.0,0.7,75,0.00,,,0.00,WUHU216HW,2013-03-14 01:49:00,
2013-03-14 01:54:00,27.4,20.4,29.97,SSE,158,0.0,0.4,75,0.00,,,0.00,WUHU216HW,2013-03-14 01:54:00,
2013-03-14 01:59:00,27.5,20.6,29.96,SSE,158,0.0,0.0,75,0.00,,,0.00,WUHU216HW,2013-03-14 01:59:00,
2013-03-14 02:04:00,27.5,20.6,29.96,SSE,158,0.0,0.0,75,0.00,,,0.00,WUHU216HW,2013-03-14 02:04:00,
2013-03-14 02:09:00,27.5,20.6,29.97,SSE,158,0.0,0.0,75,0.00,,,0.00,WUHU216HW,2013-03-14 02:09:00,
2013-03-14 02:14:00,27.7,20.8,29.96,SSE,158,0.0,0.0,75,0.00,,,0.00,WUHU216HW,2013-03-14 02:14:00,
2013-03-14 02:19:00,27.7,20.8,29.96,SSE,158,0.0,0.0,75,0.00,,,0.00,WUHU216HW,2013-03-14 02:19:00,
2013-03-14 02:24:00,27.7,20.8,29.96,SSE,158,0.0,0.0,75,0.00,,,0.00,WUHU216HW,2013-03-14 02:24:00,
2013-03-14 02:29:00,27.7,20.8,29.96,SSE,158,0.0,0.0,75,0.00,,,0.00,WUHU216HW,2013-03-14 02:29:00,
2013-03-14 02:34:00,27.7,21.1,29.96,SSE,158,0.0,0.0,76,0.00,,,0.00,WUHU216HW,2013-03-14 02:34:00,
2013-03-14 02:39:00,27.7,20.8,29.96,SSE,158,0.4,0.4,75,0.00,,,0.00,WUHU216HW,2013-03-14 02:39:00,
2013-03-14 02:44:00,27.9,21.0,29.96,SSE,158,0.0,0.4,75,0.00,,,0.00,WUHU216HW,2013-03-14 02:44:00,
2013-03-14 02:49:00,27.7,21.1,29.96,SSE,158,0.0,0.2,76,0.00,,,0.00,WUHU216HW,2013-03-14 02:49:00,
2013-03-14 02:54:00,27.4,21.1,29.96,SSE,158,0.2,0.4,77,0.00,,,0.00,WUHU216HW,2013-03-14 02:54:00,
2013-03-14 02:59:00,27.5,20.9,29.95,SSE,158,0.0,0.4,76,0.00,,,0.00,WUHU216HW,2013-03-14 02:59:00,
2013-03-14 03:04:00,27.5,20.9,29.95,SSE,158,0.0,0.2,76,0.00,,,0.00,WUHU216HW,2013-03-14 03:04:00,
2013-03-14 03:09:00,27.5,20.9,29.95,SSE,158,0.0,0.0,76,0.00,,,0.00,WUHU216HW,2013-03-14 03:09:00,
2013-03-14 03:14:00,27.5,20.9,29.95,SSE,158,0.2,0.2,76,0.00,,,0.00,WUHU216HW,2013-03-14 03:14:00,
2013-03-14 03:19:00,27.5,20.9,29.95,SSE,158,0.0,0.2,76,0.00,,,0.00,WUHU216HW,2013-03-14 03:19:00,
2013-03-14 03:24:00,27.7,21.1,29.94,SSE,158,0.0,0.2,76,0.00,,,0.00,WUHU216HW,2013-03-14 03:24:00,
2013-03-14 03:29:00,27.7,21.1,29.94,SSE,158,0.0,0.0,76,0.00,,,0.00,WUHU216HW,2013-03-14 03:29:00,
2013-03-14 03:34:00,27.5,20.9,29.94,SSE,158,0.0,0.0,76,0.00,,,0.00,WUHU216HW,2013-03-14 03:34:00,
2013-03-14 03:39:00,27.4,20.7,29.94,SSE,158,0.0,0.0,76,0.00,,,0.00,WUHU216HW,2013-03-14 03:39:00,
2013-03-14 03:44:00,27.0,20.7,29.94,SSE,158,0.0,0.0,77,0.00,,,0.00,WUHU216HW,2013-03-14 03:44:00,
2013-03-14 03:49:00,26.8,20.5,29.94,SSE,158,0.0,0.0,77,0.00,,,0.00,WUHU216HW,2013-03-14 03:49:00,
2013-03-14 03:54:00,26.6,20.4,29.94,SSE,158,0.0,0.0,77,0.00,,,0.00,WUHU216HW,2013-03-14 03:54:00,
2013-03-14 03:59:00,26.8,20.5,29.94,SSE,158,0.0,0.0,77,0.00,,,0.00,WUHU216HW,2013-03-14 03:59:00,
2013-03-14 04:04:00,27.0,20.7,29.94,SSE,158,0.0,0.0,77,0.00,,,0.00,WUHU216HW,2013-03-14 04:04:00,
2013-03-14 04:09:00,26.8,20.5,29.94,SSE,158,0.0,0.0,77,0.00,,,0.00,WUHU216HW,2013-03-14 04:09:00,
2013-03-14 04:14:00,26.6,20.4,29.93,SSE,158,0.0,0.0,77,0.00,,,0.00,WUHU216HW,2013-03-14 04:14:00,
2013-03-14 04:19:00,26.6,20.4,29.93,SSE,158,0.0,0.0,77,0.00,,,0.00,WUHU216HW,2013-03-14 04:19:00,
2013-03-14 04:24:00,26.6,20.4,29.93,SSE,158,0.0,0.0,77,0.00,,,0.00,WUHU216HW,2013-03-14 04:24:00,
2013-03-14 04:29:00,26.6,20.4,29.93,SSE,158,0.0,0.0,77,0.00,,,0.00,WUHU216HW,2013-03-14 04:29:00,
2013-03-14 04:34:00,26.5,20.4,29.93,SSE,158,0.0,0.0,78,0.00,,,0.00,WUHU216HW,2013-03-14 04:34:00,
2013-03-14 04:39:00,26.3,20.6,29.93,SSE,158,0.0,0.0,79,0.00,,,0.00,WUHU216HW,2013-03-14 04:39:00,
2013-03-14 04:44:00,26.5,20.8,29.93,SSE,158,0.0,0.2,79,0.00,,,0.00,WUHU216HW,2013-03-14 04:44:00,
2013-03-14 04:49:00,26.5,20.8,29.93,SSE,158,0.0,0.2,79,0.00,,,0.00,WUHU216HW,2013-03-14 04:49:00,
2013-03-14 04:54:00,26.5,20.4,29.93,SSE,158,0.0,0.0,78,0.00,,,0.00,WUHU216HW,2013-03-14 04:54:00,
2013-03-14 04:59:00,26.5,20.8,29.92,SSE,158,0.0,0.0,79,0.00,,,0.00,WUHU216HW,2013-03-14 04:59:00,
2013-03-14 05:04:00,26.6,21.0,29.93,SSE,158,0.0,0.0,79,0.00,,,0.00,WUHU216HW,2013-03-14 05:04:00,
2013-03-14 05:09:00,26.8,21.4,29.92,SSE,158,0.4,0.4,80,0.00,,,0.00,WUHU216HW,2013-03-14 05:09:00,
2013-03-14 05:14:00,27.0,21.3,29.93,SSE,158,0.4,0.4,79,0.00,,,0.00,WUHU216HW,2013-03-14 05:14:00,
2013-03-14 05:19:00,27.0,21.3,29.93,SSE,158,0.2,0.4,79,0.00,,,0.00,WUHU216HW,2013-03-14 05:19:00,
2013-03-14 05:24:00,27.0,21.3,29.92,SSE,158,0.0,0.2,79,0.00,,,0.00,WUHU216HW,2013-03-14 05:24:00,
2013-03-14 05:29:00,27.0,21.3,29.92,SSE,158,0.0,0.2,79,0.00,,,0.00,WUHU216HW,2013-03-14 05:29:00,
2013-03-14 05:34:00,27.0,21.3,29.92,SSE,158,0.0,0.0,79,0.00,,,0.00,WUHU216HW,2013-03-14 05:34:00,
2013-03-14 05:39:00,27.0,21.3,29.92,SSE,158,0.0,0.0,79,0.00,,,0.00,WUHU216HW,2013-03-14 05:39:00,
2013-03-14 05:44:00,27.0,21.3,29.92,SSE,158,0.0,0.0,79,0.00,,,0.00,WUHU216HW,2013-03-14 05:44:00,
2013-03-14 05:49:00,27.2,21.5,29.91,SSE,158,0.0,0.0,79,0.00,,,0.00,WUHU216HW,2013-03-14 05:49:00,
2013-03-14 05:54:00,27.2,21.5,29.91,SSE,158,0.0,0.0,79,0.00,,,0.00,WUHU216HW,2013-03-14 05:54:00,
2013-03-14 05:59:00,27.4,21.7,29.91,SSE,158,0.0,0.0,79,0.00,,,0.00,WUHU216HW,2013-03-14 05:59:00,
2013-03-14 06:04:00,27.4,21.7,29.92,SSE,158,0.0,0.0,79,0.00,,,0.00,WUHU216HW,2013-03-14 06:04:00,
2013-03-14 06:09:00,27.4,22.2,29.91,SSE,158,0.7,0.7,81,0.00,,,0.00,WUHU216HW,2013-03-14 06:09:00,
2013-03-14 06:14:00,27.5,22.1,29.91,SSE,158,0.0,0.7,80,0.00,,,0.00,WUHU216HW,2013-03-14 06:14:00,
2013-03-14 06:19:00,27.4,21.7,29.91,SSE,158,0.0,0.0,79,0.00,,,0.00,WUHU216HW,2013-03-14 06:19:00,
2013-03-14 06:24:00,27.5,21.9,29.91,SSE,158,0.0,0.0,79,0.00,,,0.00,WUHU216HW,2013-03-14 06:24:00,
2013-03-14 06:29:00,27.5,21.9,29.91,SSE,158,0.0,0.0,79,0.00,,,0.00,WUHU216HW,2013-03-14 06:29:00,
2013-03-14 06:34:00,27.7,22.6,29.91,SSE,158,0.0,0.0,81,0.00,,,0.00,WUHU216HW,2013-03-14 06:34:00,
2013-03-14 06:39:00,27.7,22.3,29.91,SSE,158,0.0,0.0,80,0.00,,,0.00,WUHU216HW,2013-03-14 06:39:00,
2013-03-14 06:44:00,27.7,22.3,29.91,SSE,158,0.0,0.0,80,0.00,,,0.00,WUHU216HW,2013-03-14 06:44:00,
2013-03-14 06:49:00,27.7,22.3,29.91,SSE,158,0.0,0.0,80,0.00,,,0.00,WUHU216HW,2013-03-14 06:49:00,
2013-03-14 06:54:00,27.9,22.5,29.91,SSE,158,0.0,0.0,80,0.00,,,0.00,WUHU216HW,2013-03-14 06:54:00,
2013-03-14 06:59:00,27.9,22.5,29.91,SSE,158,0.0,0.0,80,0.00,,,0.00,WUHU216HW,2013-03-14 06:59:00,
2013-03-14 07:04:00,28.1,22.7,29.91,SSE,158,0.0,0.0,80,0.00,,,0.00,WUHU216HW,2013-03-14 07:04:00,
2013-03-14 07:09:00,28.3,22.9,29.91,SSE,158,0.0,0.0,80,0.00,,,0.00,WUHU216HW,2013-03-14 07:09:00,
2013-03-14 07:14:00,28.3,22.9,29.91,SSE,158,0.0,0.0,80,0.00,,,0.00,WUHU216HW,2013-03-14 07:14:00,
2013-03-14 07:19:00,28.3,22.9,29.91,SSE,158,0.0,0.0,80,0.00,,,0.00,WUHU216HW,2013-03-14 07:19:00,
2013-03-14 07:24:00,28.4,23.0,29.91,SSE,158,0.0,0.0,80,0.00,,,0.00,WUHU216HW,2013-03-14 07:24:00,
2013-03-14 07:29:00,28.4,23.0,29.91,SSE,158,0.0,0.0,80,0.00,,,0.00,WUHU216HW,2013-03-14 07:29:00,
2013-03-14 07:34:00,28.6,23.5,29.91,SSE,158,0.0,0.0,81,0.00,,,0.00,WUHU216HW,2013-03-14 07:34:00,
2013-03-14 07:39:00,28.8,23.7,29.91,SSE,158,0.0,0.0,81,0.00,,,0.00,WUHU216HW,2013-03-14 07:39:00,
2013-03-14 07:44:00,29.0,23.9,29.91,SSE,158,0.0,0.0,81,0.00,,,0.00,WUHU216HW,2013-03-14 07:44:00,
2013-03-14 07:49:00,29.2,24.0,29.91,SSE,158,0.0,0.0,81,0.00,,,0.00,WUHU216HW,2013-03-14 07:49:00,
2013-03-14 07:54:00,29.9,24.8,29.91,SSE,158,0.0,0.2,81,0.00,,,0.00,WUHU216HW,2013-03-14 07:54:00,
2013-03-14 07:59:00,30.2,25.1,29.91,SSE,158,0.0,0.2,81,0.00,,,0.00,WUHU216HW,2013-03-14 07:59:00,
2013-03-14 08:04:00,30.4,25.3,29.91,SSE,158,0.0,0.2,81,0.00,,,0.00,WUHU216HW,2013-03-14 08:04:00,
2013-03-14 08:09:00,30.6,25.5,29.91,SSE,158,0.0,0.0,81,0.00,,,0.00,WUHU216HW,2013-03-14 08:09:00,
2013-03-14 08:14:00,31.0,25.8,29.91,SSE,158,0.0,0.0,81,0.00,,,0.00,WUHU216HW,2013-03-14 08:14:00,
2013-03-14 08:19:00,31.1,25.7,29.91,SSE,158,0.0,0.0,80,0.00,,,0.00,WUHU216HW,2013-03-14 08:19:00,
2013-03-14 08:24:00,31.3,25.9,29.91,SSE,158,0.0,0.0,80,0.00,,,0.00,WUHU216HW,2013-03-14 08:24:00,
2013-03-14 08:29:00,31.5,26.1,29.91,SSE,158,0.0,0.0,80,0.00,,,0.00,WUHU216HW,2013-03-14 08:29:00,
2013-03-14 08:34:00,31.7,26.3,29.91,SSE,158,0.0,0.0,80,0.00,,,0.00,WUHU216HW,2013-03-14 08:34:00,
2013-03-14 08:39:00,31.9,26.5,29.91,SSE,158,0.0,0.0,80,0.00,,,0.00,WUHU216HW,2013-03-14 08:39:00,
2013-03-14 08:44:00,32.0,26.9,29.90,SSE,158,0.0,0.0,81,0.00,,,0.00,WUHU216HW,2013-03-14 08:44:00,
2013-03-14 08:49:00,32.4,27.3,29.90,SSE,158,0.0,0.0,81,0.00,,,0.00,WUHU216HW,2013-03-14 08:49:00,
2013-03-14 08:54:00,32.9,27.7,29.90,SSE,158,0.0,0.0,81,0.00,,,0.00,WUHU216HW,2013-03-14 08:54:00,
2013-03-14 08:59:00,33.5,28.3,29.90,SSE,158,0.0,0.0,81,0.00,,,0.00,WUHU216HW,2013-03-14 08:59:00,
2013-03-14 09:04:00,33.8,28.5,29.90,SSE,158,0.0,0.0,81,0.00,,,0.00,WUHU216HW,2013-03-14 09:04:00,
2013-03-14 09:09:00,34.0,28.7,29.90,SSE,158,0.0,0.0,81,0.00,,,0.00,WUHU216HW,2013-03-14 09:09:00,
2013-03-14 09:14:00,34.2,28.9,29.90,SSE,158,0.0,0.0,81,0.00,,,0.00,WUHU216HW,2013-03-14 09:14:00,
2013-03-14 09:20:00,34.2,28.6,29.90,SSE,158,0.0,0.0,80,0.00,,,0.00,WUHU216HW,2013-03-14 09:20:00,
2013-03-14 09:25:00,34.2,28.6,29.89,SSE,158,0.0,0.0,80,0.00,,,0.00,WUHU216HW,2013-03-14 09:25:00,
2013-03-14 09:30:00,34.0,28.4,29.89,SSE,158,0.0,0.0,80,0.00,,,0.00,WUHU216HW,2013-03-14 09:30:00,
2013-03-14 09:35:00,34.2,28.6,29.89,SSE,158,0.0,0.0,80,0.00,,,0.00,WUHU216HW,2013-03-14 09:35:00,
2013-03-14 09:40:00,34.6,29.0,29.89,SSE,158,0.0,0.0,80,0.00,,,0.00,WUHU216HW,2013-03-14 09:40:00,
2013-03-14 09:45:00,34.9,29.3,29.89,SSE,158,0.0,0.0,80,0.00,,,0.00,WUHU216HW,2013-03-14 09:45:00,
2013-03-14 09:50:00,35.6,30.1,29.89,SSE,158,0.0,0.0,80,0.00,,,0.00,WUHU216HW,2013-03-14 09:50:00,
2013-03-14 09:55:00,36.2,30.6,29.89,SSE,158,0.0,0.7,80,0.00,,,0.00,WUHU216HW,2013-03-14 09:55:00,
2013-03-14 10:00:00,36.4,30.8,29.88,SSE,158,0.7,0.7,80,0.00,,,0.00,WUHU216HW,2013-03-14 10:00:00,
2013-03-14 10:05:00,36.4,30.8,29.88,SSE,158,0.0,0.7,80,0.00,,,0.00,WUHU216HW,2013-03-14 10:05:00,
2013-03-14 10:10:00,36.5,31.0,29.88,SSE,158,0.0,0.7,80,0.00,,,0.00,WUHU216HW,2013-03-14 10:10:00,
2013-03-14 10:15:00,36.7,31.1,29.88,SSE,158,0.0,0.0,80,0.00,,,0.00,WUHU216HW,2013-03-14 10:15:00,
2013-03-14 10:20:00,36.9,31.3,29.87,SSE,158,0.0,0.7,80,0.00,,,0.00,WUHU216HW,2013-03-14 10:20:00,
2013-03-14 10:25:00,37.1,31.5,29.87,SSE,158,0.0,0.7,80,0.00,,,0.00,WUHU216HW,2013-03-14 10:25:00,
2013-03-14 10:30:00,37.1,31.5,29.87,SSE,158,0.0,0.0,80,0.00,,,0.00,WUHU216HW,2013-03-14 10:30:00,
2013-03-14 10:35:00,37.1,31.8,29.87,SSE,158,0.0,0.0,81,0.00,,,0.00,WUHU216HW,2013-03-14 10:35:00,
2013-03-14 10:40:00,37.1,31.8,29.87,SSE,158,0.0,0.0,81,0.00,,,0.00,WUHU216HW,2013-03-14 10:40:00,
2013-03-14 10:45:00,37.1,31.8,29.87,SSE,158,0.0,0.0,81,0.00,,,0.00,WUHU216HW,2013-03-14 10:45:00,
2013-03-14 10:50:00,37.1,31.8,29.86,SSE,158,0.0,0.0,81,0.00,,,0.00,WUHU216HW,2013-03-14 10:50:00,
2013-03-14 10:55:00,37.4,32.1,29.86,SSE,158,0.7,0.7,81,0.00,,,0.00,WUHU216HW,2013-03-14 10:55:00,
2013-03-14 11:00:00,37.3,32.0,29.86,SSW,203,0.0,0.7,81,0.00,,,0.00,WUHU216HW,2013-03-14 11:00:00,
2013-03-14 11:05:00,37.3,32.0,29.86,West,270,1.1,1.1,81,0.00,,,0.00,WUHU216HW,2013-03-14 11:05:00,
2013-03-14 11:10:00,37.3,32.0,29.86,West,270,0.0,1.1,81,0.00,,,0.00,WUHU216HW,2013-03-14 11:10:00,
2013-03-14 11:15:00,37.3,32.0,29.86,WSW,248,0.0,1.1,81,0.00,,,0.00,WUHU216HW,2013-03-14 11:15:00,
2013-03-14 11:20:00,37.3,32.0,29.86,WSW,248,0.0,0.2,81,0.00,,,0.00,WUHU216HW,2013-03-14 11:20:00,
2013-03-14 11:25:00,37.4,32.1,29.85,WSW,248,0.0,0.2,81,0.00,,,0.00,WUHU216HW,2013-03-14 11:25:00,
2013-03-14 11:30:00,37.4,32.4,29.85,West,270,0.0,0.0,82,0.00,,,0.00,WUHU216HW,2013-03-14 11:30:00,
2013-03-14 11:35:00,37.6,32.6,29.85,West,270,0.0,0.0,82,0.00,,,0.00,WUHU216HW,2013-03-14 11:35:00,
2013-03-14 11:40:00,38.0,33.3,29.84,West,270,0.0,0.4,83,0.00,,,0.00,WUHU216HW,2013-03-14 11:40:00,
2013-03-14 11:45:00,38.2,33.5,29.84,West,270,0.0,0.4,83,0.00,,,0.00,WUHU216HW,2013-03-14 11:45:00,
2013-03-14 11:50:00,38.2,33.5,29.84,West,270,1.3,1.3,83,0.00,,,0.00,WUHU216HW,2013-03-14 11:50:00,
2013-03-14 11:55:00,38.2,33.8,29.84,West,270,0.0,1.3,84,0.00,,,0.00,WUHU216HW,2013-03-14 11:55:00,
2013-03-14 12:00:00,38.3,33.7,29.84,West,270,0.0,0.0,83,0.00,,,0.00,WUHU216HW,2013-03-14 12:00:00,
2013-03-14 12:05:00,38.3,33.7,29.84,West,270,0.0,0.0,83,0.00,,,0.00,WUHU216HW,2013-03-14 12:05:00,
2013-03-14 12:10:00,38.5,34.1,29.84,West,270,0.0,0.0,84,0.00,,,0.00,WUHU216HW,2013-03-14 12:10:00,
2013-03-14 12:15:00,38.5,34.1,29.83,West,270,0.0,0.4,84,0.00,,,0.00,WUHU216HW,2013-03-14 12:15:00,
2013-03-14 12:20:00,38.5,33.9,29.83,West,270,0.0,0.4,83,0.00,,,0.00,WUHU216HW,2013-03-14 12:20:00,
2013-03-14 12:25:00,38.5,34.1,29.83,West,270,0.0,0.0,84,0.00,,,0.00,WUHU216HW,2013-03-14 12:25:00,
2013-03-14 12:30:00,38.5,34.1,29.82,West,270,0.2,0.2,84,0.00,,,0.00,WUHU216HW,2013-03-14 12:30:00,
2013-03-14 12:35:00,38.5,34.1,29.82,West,270,1.3,1.3,84,0.00,,,0.00,WUHU216HW,2013-03-14 12:35:00,
2013-03-14 12:40:00,38.5,34.1,29.82,West,270,0.0,1.3,84,0.00,,,0.00,WUHU216HW,2013-03-14 12:40:00,
2013-03-14 12:45:00,38.7,34.3,29.82,West,270,0.2,1.3,84,0.00,,,0.00,WUHU216HW,2013-03-14 12:45:00,
2013-03-14 12:50:00,38.9,34.7,29.82,SSW,203,0.0,0.2,85,0.01,,,0.01,WUHU216HW,2013-03-14 12:50:00,
2013-03-14 12:55:00,38.7,34.6,29.82,SSW,203,0.0,0.2,85,0.01,,,0.01,WUHU216HW,2013-03-14 12:55:00,
2013-03-14 13:00:00,38.7,34.6,29.82,SSW,203,0.2,0.2,85,0.01,,,0.01,WUHU216HW,2013-03-14 13:00:00,
2013-03-14 13:05:00,38.9,34.7,29.81,SSW,203,0.0,0.2,85,0.02,,,0.02,WUHU216HW,2013-03-14 13:05:00,
2013-03-14 13:10:00,39.2,35.1,29.81,SSW,203,0.0,0.0,85,0.02,,,0.02,WUHU216HW,2013-03-14 13:10:00,
2013-03-14 13:15:00,39.2,35.1,29.81,SSW,203,0.0,0.0,85,0.02,,,0.02,WUHU216HW,2013-03-14 13:15:00,
2013-03-14 13:20:00,39.2,35.1,29.80,SSW,203,0.0,0.0,85,0.02,,,0.02,WUHU216HW,2013-03-14 13:20:00,
2013-03-14 13:25:00,39.2,35.1,29.80,SSW,203,0.0,0.0,85,0.02,,,0.02,WUHU216HW,2013-03-14 13:25:00,
2013-03-14 13:30:00,39.2,35.1,29.80,SSW,203,0.0,0.0,85,0.02,,,0.02,WUHU216HW,2013-03-14 13:30:00,
2013-03-14 13:35:00,39.1,34.9,29.80,SSW,203,0.0,0.0,85,0.02,,,0.02,WUHU216HW,2013-03-14 13:35:00,
2013-03-14 13:40:00,38.9,34.7,29.79,SSW,203,0.0,0.0,85,0.02,,,0.02,WUHU216HW,2013-03-14 13:40:00,
2013-03-14 13:45:00,38.9,34.7,29.79,SSW,203,0.0,0.0,85,0.02,,,0.02,WUHU216HW,2013-03-14 13:45:00,
2013-03-14 13:50:00,38.9,34.7,29.79,SSW,203,0.0,0.0,85,0.01,,,0.02,WUHU216HW,2013-03-14 13:50:00,
2013-03-14 13:55:00,38.9,34.7,29.78,SSW,203,0.0,0.0,85,0.01,,,0.02,WUHU216HW,2013-03-14 13:55:00,
2013-03-14 14:00:00,39.1,35.2,29.78,SSW,203,0.0,0.0,86,0.01,,,0.02,WUHU216HW,2013-03-14 14:00:00,
2013-03-14 14:05:00,39.2,35.4,29.78,SSW,203,0.0,0.0,86,0.00,,,0.02,WUHU216HW,2013-03-14 14:05:00,
2013-03-14 14:10:00,39.8,35.9,29.78,SSW,203,0.0,0.0,86,0.00,,,0.02,WUHU216HW,2013-03-14 14:10:00,
2013-03-14 14:15:00,40.1,36.5,29.78,SSW,203,0.0,0.0,87,0.00,,,0.02,WUHU216HW,2013-03-14 14:15:00,
2013-03-14 14:20:00,40.5,36.9,29.78,SSW,203,0.0,0.0,87,0.00,,,0.02,WUHU216HW,2013-03-14 14:20:00,
2013-03-14 14:25:00,40.9,37.3,29.77,South,180,0.9,0.9,87,0.00,,,0.02,WUHU216HW,2013-03-14 14:25:00,
2013-03-14 14:30:00,40.9,37.3,29.77,South,180,0.0,0.9,87,0.00,,,0.02,WUHU216HW,2013-03-14 14:30:00,
2013-03-14 14:35:00,41.0,37.5,29.77,South,180,0.0,0.9,87,0.00,,,0.02,WUHU216HW,2013-03-14 14:35:00,
2013-03-14 14:40:00,41.4,37.4,29.77,South,180,0.0,0.0,86,0.00,,,0.02,WUHU216HW,2013-03-14 14:40:00,
2013-03-14 14:45:00,41.4,37.4,29.77,South,180,0.0,0.0,86,0.00,,,0.02,WUHU216HW,2013-03-14 14:45:00,
2013-03-14 14:50:00,41.4,37.4,29.77,South,180,0.0,0.0,86,0.00,,,0.02,WUHU216HW,2013-03-14 14:50:00,
2013-03-14 14:55:00,41.2,37.3,29.76,South,180,0.0,0.0,86,0.00,,,0.02,WUHU216HW,2013-03-14 14:55:00,
2013-03-14 15:00:00,41.4,37.4,29.76,South,180,0.0,0.0,86,0.01,,,0.03,WUHU216HW,2013-03-14 15:00:00,
2013-03-14 15:05:00,41.4,37.4,29.76,South,180,0.0,0.0,86,0.01,,,0.03,WUHU216HW,2013-03-14 15:05:00,
2013-03-14 15:10:00,41.4,37.4,29.76,South,180,0.0,0.0,86,0.01,,,0.03,WUHU216HW,2013-03-14 15:10:00,
2013-03-14 15:15:00,41.6,38.0,29.75,East,90,0.0,0.0,87,0.01,,,0.03,WUHU216HW,2013-03-14 15:15:00,
2013-03-14 15:20:00,41.8,38.2,29.75,East,90,1.1,1.1,87,0.01,,,0.03,WUHU216HW,2013-03-14 15:20:00,
2013-03-14 15:25:00,41.9,38.4,29.75,North,0,0.4,1.1,87,0.01,,,0.03,WUHU216HW,2013-03-14 15:25:00,
2013-03-14 15:30:00,42.1,38.5,29.75,North,0,0.0,1.1,87,0.01,,,0.03,WUHU216HW,2013-03-14 15:30:00,
2013-03-14 15:35:00,42.3,38.3,29.74,North,0,0.0,0.4,86,0.01,,,0.03,WUHU216HW,2013-03-14 15:35:00,
2013-03-14 15:40:00,42.1,38.2,29.74,East,90,1.1,1.1,86,0.01,,,0.03,WUHU216HW,2013-03-14 15:40:00,
2013-03-14 15:45:00,42.1,38.5,29.74,NE,45,0.4,1.1,87,0.01,,,0.03,WUHU216HW,2013-03-14 15:45:00,
2013-03-14 15:50:00,42.1,38.5,29.74,NNE,23,0.4,1.1,87,0.01,,,0.03,WUHU216HW,2013-03-14 15:50:00,
2013-03-14 15:55:00,42.1,38.5,29.74,East,90,1.3,1.3,87,0.00,,,0.03,WUHU216HW,2013-03-14 15:55:00,
2013-03-14 16:00:00,42.1,38.5,29.74,NNW,338,1.3,1.3,87,0.00,,,0.03,WUHU216HW,2013-03-14 16:00:00,
2013-03-14 16:05:00,42.1,38.5,29.73,NNW,338,2.5,2.5,87,0.00,,,0.03,WUHU216HW,2013-03-14 16:05:00,
2013-03-14 16:10:00,42.1,38.5,29.73,SSE,158,1.3,2.5,87,0.00,,,0.03,WUHU216HW,2013-03-14 16:10:00,
2013-03-14 16:15:00,41.9,38.4,29.73,SSE,158,0.4,2.5,87,0.00,,,0.03,WUHU216HW,2013-03-14 16:15:00,
2013-03-14 16:20:00,42.1,38.5,29.73,SSW,203,0.7,1.3,87,0.00,,,0.03,WUHU216HW,2013-03-14 16:20:00,
2013-03-14 16:25:00,41.9,38.4,29.73,WSW,248,0.4,0.7,87,0.00,,,0.03,WUHU216HW,2013-03-14 16:25:00,
2013-03-14 16:30:00,41.8,38.2,29.73,WNW,293,1.1,1.1,87,0.00,,,0.03,WUHU216HW,2013-03-14 16:30:00,
2013-03-14 16:35:00,41.6,38.0,29.73,WSW,248,0.4,1.1,87,0.01,,,0.03,WUHU216HW,2013-03-14 16:35:00,
2013-03-14 16:40:00,41.6,38.0,29.73,WNW,293,1.1,1.1,87,0.01,,,0.04,WUHU216HW,2013-03-14 16:40:00,
2013-03-14 16:45:00,41.6,38.3,29.72,SE,135,1.8,1.8,88,0.01,,,0.04,WUHU216HW,2013-03-14 16:45:00,
2013-03-14 16:50:00,41.6,38.3,29.72,ENE,68,1.1,1.8,88,0.01,,,0.04,WUHU216HW,2013-03-14 16:50:00,
2013-03-14 16:55:00,41.4,38.4,29.72,SSE,158,0.4,1.8,89,0.02,,,0.05,WUHU216HW,2013-03-14 16:55:00,
2013-03-14 17:00:00,41.4,38.4,29.72,SE,135,0.4,1.3,89,0.02,,,0.05,WUHU216HW,2013-03-14 17:00:00,
2013-03-14 17:05:00,41.0,38.1,29.72,SSE,158,0.0,0.4,89,0.02,,,0.05,WUHU216HW,2013-03-14 17:05:00,
2013-03-14 17:10:00,41.0,37.7,29.72,SSE,158,0.0,0.4,88,0.02,,,0.05,WUHU216HW,2013-03-14 17:10:00,
2013-03-14 17:15:00,40.9,37.5,29.72,South,180,0.0,0.2,88,0.02,,,0.05,WUHU216HW,2013-03-14 17:15:00,
2013-03-14 17:20:00,40.7,37.4,29.72,South,180,0.4,0.4,88,0.02,,,0.05,WUHU216HW,2013-03-14 17:20:00,
2013-03-14 17:26:00,40.7,37.4,29.71,South,180,0.2,0.4,88,0.02,,,0.05,WUHU216HW,2013-03-14 17:26:00,
2013-03-14 17:31:00,40.7,37.4,29.71,West,270,0.2,0.4,88,0.02,,,0.05,WUHU216HW,2013-03-14 17:31:00,
2013-03-14 17:36:00,40.7,37.4,29.71,West,270,0.7,0.7,88,0.01,,,0.05,WUHU216HW,2013-03-14 17:36:00,
2013-03-14 17:41:00,40.7,37.4,29.71,West,270,0.0,0.7,88,0.01,,,0.05,WUHU216HW,2013-03-14 17:41:00,
2013-03-14 17:46:00,40.7,37.4,29.71,West,270,0.2,0.7,88,0.01,,,0.05,WUHU216HW,2013-03-14 17:46:00,
2013-03-14 17:51:00,40.7,37.4,29.71,West,270,0.0,0.2,88,0.00,,,0.05,WUHU216HW,2013-03-14 17:51:00,
2013-03-14 17:56:00,40.7,37.4,29.71,West,270,0.0,0.0,88,0.00,,,0.05,WUHU216HW,2013-03-14 17:56:00,
2013-03-14 18:01:00,40.7,37.4,29.71,West,270,0.0,0.0,88,0.00,,,0.05,WUHU216HW,2013-03-14 18:01:00,
2013-03-14 18:06:00,40.7,37.4,29.71,West,270,0.0,0.0,88,0.00,,,0.05,WUHU216HW,2013-03-14 18:06:00,
2013-03-14 18:11:00,40.7,37.4,29.71,SSW,203,0.4,0.4,88,0.00,,,0.05,WUHU216HW,2013-03-14 18:11:00,
2013-03-14 18:16:00,40.5,37.2,29.71,SSW,203,0.0,0.4,88,0.00,,,0.05,WUHU216HW,2013-03-14 18:16:00,
2013-03-14 18:21:00,40.5,37.2,29.71,West,270,0.4,0.4,88,0.00,,,0.05,WUHU216HW,2013-03-14 18:21:00,
2013-03-14 18:26:00,40.5,37.5,29.71,South,180,0.4,0.4,89,0.00,,,0.05,WUHU216HW,2013-03-14 18:26:00,
2013-03-14 18:31:00,40.5,37.5,29.71,NE,45,0.7,0.7,89,0.00,,,0.05,WUHU216HW,2013-03-14 18:31:00,
2013-03-14 18:36:00,40.5,37.5,29.71,NNW,338,0.4,0.7,89,0.00,,,0.05,WUHU216HW,2013-03-14 18:36:00,
2013-03-14 18:41:00,40.3,37.4,29.71,West,270,0.4,0.7,89,0.00,,,0.05,WUHU216HW,2013-03-14 18:41:00,
2013-03-14 18:46:00,40.3,37.4,29.70,WNW,293,0.0,0.4,89,0.00,,,0.05,WUHU216HW,2013-03-14 18:46:00,
2013-03-14 18:51:00,40.3,37.4,29.70,WNW,293,0.0,0.2,89,0.01,,,0.06,WUHU216HW,2013-03-14 18:51:00,
2013-03-14 18:56:00,40.3,37.4,29.70,WNW,293,0.0,0.0,89,0.01,,,0.06,WUHU216HW,2013-03-14 18:56:00,
2013-03-14 19:01:00,40.3,37.4,29.70,WNW,293,0.0,0.0,89,0.01,,,0.06,WUHU216HW,2013-03-14 19:01:00,
2013-03-14 19:06:00,40.3,37.4,29.69,WNW,293,0.0,0.0,89,0.01,,,0.06,WUHU216HW,2013-03-14 19:06:00,
2013-03-14 19:11:00,40.3,37.4,29.69,WNW,293,0.0,0.0,89,0.01,,,0.06,WUHU216HW,2013-03-14 19:11:00,
2013-03-14 19:16:00,40.3,37.4,29.69,WNW,293,0.0,0.0,89,0.02,,,0.06,WUHU216HW,2013-03-14 19:16:00,
2013-03-14 19:21:00,40.3,37.4,29.69,WNW,293,0.0,0.0,89,0.02,,,0.07,WUHU216HW,2013-03-14 19:21:00,
2013-03-14 19:27:00,40.3,37.4,29.69,West,270,0.0,0.0,89,0.02,,,0.07,WUHU216HW,2013-03-14 19:27:00,
2013-03-14 19:32:00,40.1,37.2,29.68,West,270,0.0,0.0,89,0.02,,,0.07,WUHU216HW,2013-03-14 19:32:00,
2013-03-14 19:37:00,40.1,37.2,29.68,West,270,0.0,0.0,89,0.02,,,0.07,WUHU216HW,2013-03-14 19:37:00,
2013-03-14 19:42:00,40.1,37.2,29.68,WNW,293,0.2,0.2,89,0.02,,,0.07,WUHU216HW,2013-03-14 19:42:00,
2013-03-14 19:47:00,40.1,37.2,29.68,NNW,338,0.9,0.9,89,0.02,,,0.07,WUHU216HW,2013-03-14 19:47:00,
2013-03-14 19:52:00,40.1,37.4,29.68,North,0,0.4,0.9,90,0.01,,,0.07,WUHU216HW,2013-03-14 19:52:00,
2013-03-14 19:57:00,40.1,37.4,29.68,ENE,68,0.4,0.4,90,0.01,,,0.07,WUHU216HW,2013-03-14 19:57:00,
2013-03-14 20:02:00,40.1,37.4,29.67,NNE,23,1.1,1.1,90,0.02,,,0.08,WUHU216HW,2013-03-14 20:02:00,
2013-03-14 20:07:00,40.0,37.3,29.67,NNE,23,0.4,1.6,90,0.03,,,0.08,WUHU216HW,2013-03-14 20:07:00,
2013-03-14 20:12:00,40.0,37.3,29.68,ENE,68,0.4,1.6,90,0.03,,,0.10,WUHU216HW,2013-03-14 20:12:00,
2013-03-14 20:17:00,40.0,37.3,29.68,NNE,23,0.4,0.4,90,0.02,,,0.10,WUHU216HW,2013-03-14 20:17:00,
2013-03-14 20:22:00,40.0,37.3,29.68,NE,45,0.0,0.4,90,0.02,,,0.10,WUHU216HW,2013-03-14 20:22:00,
2013-03-14 20:27:00,39.8,37.1,29.68,North,0,1.1,1.1,90,0.02,,,0.10,WUHU216HW,2013-03-14 20:27:00,
2013-03-14 20:32:00,39.8,37.1,29.67,NW,315,0.0,1.1,90,0.02,,,0.10,WUHU216HW,2013-03-14 20:32:00,
2013-03-14 20:37:00,39.8,37.1,29.67,WNW,293,0.0,1.1,90,0.02,,,0.10,WUHU216HW,2013-03-14 20:37:00,
2013-03-14 20:42:00,39.8,37.1,29.66,WNW,293,0.9,0.9,90,0.02,,,0.10,WUHU216HW,2013-03-14 20:42:00,
2013-03-14 20:47:00,39.8,37.1,29.66,WNW,293,0.0,0.9,90,0.03,,,0.10,WUHU216HW,2013-03-14 20:47:00,
2013-03-14 20:52:00,39.6,36.9,29.66,WNW,293,0.4,0.9,90,0.03,,,0.10,WUHU216HW,2013-03-14 20:52:00,
2013-03-14 20:57:00,39.6,36.9,29.65,WNW,293,0.7,0.7,90,0.02,,,0.10,WUHU216HW,2013-03-14 20:57:00,
2013-03-14 21:02:00,39.6,36.9,29.65,WNW,293,0.0,0.7,90,0.02,,,0.10,WUHU216HW,2013-03-14 21:02:00,
2013-03-14 21:07:00,39.6,36.9,29.65,WNW,293,0.0,0.0,90,0.01,,,0.10,WUHU216HW,2013-03-14 21:07:00,
2013-03-14 21:12:00,39.6,36.9,29.65,WNW,293,0.0,0.0,90,0.02,,,0.11,WUHU216HW,2013-03-14 21:12:00,
2013-03-14 21:17:00,39.6,36.9,29.64,WNW,293,0.4,0.4,90,0.02,,,0.11,WUHU216HW,2013-03-14 21:17:00,
2013-03-14 21:22:00,39.8,37.1,29.64,WNW,293,0.0,0.4,90,0.02,,,0.11,WUHU216HW,2013-03-14 21:22:00,
2013-03-14 21:27:00,39.8,37.1,29.64,WNW,293,0.0,0.4,90,0.02,,,0.11,WUHU216HW,2013-03-14 21:27:00,
2013-03-14 21:33:00,39.8,37.1,29.64,West,270,0.0,0.0,90,0.02,,,0.11,WUHU216HW,2013-03-14 21:33:00,
2013-03-14 21:38:00,40.0,37.3,29.63,NW,315,1.3,1.3,90,0.02,,,0.11,WUHU216HW,2013-03-14 21:38:00,
2013-03-14 21:43:00,40.0,37.3,29.63,WNW,293,0.4,1.3,90,0.03,,,0.12,WUHU216HW,2013-03-14 21:43:00,
2013-03-14 21:48:00,40.0,37.3,29.63,SSE,158,0.2,1.3,90,0.02,,,0.12,WUHU216HW,2013-03-14 21:48:00,
2013-03-14 21:53:00,40.1,37.4,29.63,West,270,0.7,0.9,90,0.02,,,0.12,WUHU216HW,2013-03-14 21:53:00,
2013-03-14 21:58:00,40.3,37.9,29.63,SSE,158,0.0,0.9,91,0.02,,,0.12,WUHU216HW,2013-03-14 21:58:00,
2013-03-14 22:03:00,40.3,37.9,29.63,South,180,0.4,0.9,91,0.02,,,0.12,WUHU216HW,2013-03-14 22:03:00,
2013-03-14 22:08:00,40.3,37.9,29.63,SE,135,0.7,0.7,91,0.02,,,0.12,WUHU216HW,2013-03-14 22:08:00,
2013-03-14 22:13:00,40.3,37.9,29.63,West,270,0.7,0.7,91,0.01,,,0.12,WUHU216HW,2013-03-14 22:13:00,
2013-03-14 22:18:00,40.5,38.1,29.62,West,270,0.0,0.7,91,0.01,,,0.12,WUHU216HW,2013-03-14 22:18:00,
2013-03-14 22:23:00,40.3,37.9,29.62,South,180,1.1,1.1,91,0.01,,,0.12,WUHU216HW,2013-03-14 22:23:00,
2013-03-14 22:28:00,40.5,38.1,29.62,South,180,0.0,1.1,91,0.01,,,0.12,WUHU216HW,2013-03-14 22:28:00,
2013-03-14 22:33:00,40.5,38.1,29.62,South,180,0.2,1.1,91,0.01,,,0.12,WUHU216HW,2013-03-14 22:33:00,
2013-03-14 22:38:00,40.5,38.1,29.61,South,180,0.2,0.2,91,0.01,,,0.12,WUHU216HW,2013-03-14 22:38:00,
2013-03-14 22:43:00,40.5,38.1,29.61,South,180,0.4,0.4,91,0.00,,,0.12,WUHU216HW,2013-03-14 22:43:00,
2013-03-14 22:48:00,40.5,38.1,29.61,South,180,0.4,0.4,91,0.00,,,0.12,WUHU216HW,2013-03-14 22:48:00,
2013-03-14 22:53:00,40.5,38.1,29.60,SSE,158,0.9,0.9,91,0.00,,,0.12,WUHU216HW,2013-03-14 22:53:00,
2013-03-14 22:58:00,40.5,38.1,29.60,South,180,0.4,0.9,91,0.00,,,0.12,WUHU216HW,2013-03-14 22:58:00,
2013-03-14 23:03:00,40.7,38.3,29.60,South,180,0.4,0.9,91,0.00,,,0.12,WUHU216HW,2013-03-14 23:03:00,
2013-03-14 23:08:00,40.5,38.1,29.60,SE,135,0.0,0.4,91,0.00,,,0.12,WUHU216HW,2013-03-14 23:08:00,
2013-03-14 23:13:00,40.7,38.3,29.60,SSE,158,0.0,0.2,91,0.00,,,0.12,WUHU216HW,2013-03-14 23:13:00,
2013-03-14 23:18:00,40.7,38.3,29.60,NNE,23,0.0,0.0,91,0.00,,,0.12,WUHU216HW,2013-03-14 23:18:00,
2013-03-14 23:23:00,40.7,38.3,29.59,NNW,338,0.4,0.4,91,0.00,,,0.12,WUHU216HW,2013-03-14 23:23:00,
2013-03-14 23:28:00,40.5,38.1,29.59,NNW,338,0.4,0.9,91,0.00,,,0.12,WUHU216HW,2013-03-14 23:28:00,
2013-03-14 23:33:00,40.7,38.3,29.59,WSW,248,1.1,1.1,91,0.00,,,0.12,WUHU216HW,2013-03-14 23:33:00,
2013-03-14 23:38:00,40.5,38.1,29.58,NNW,338,0.2,1.1,91,0.00,,,0.12,WUHU216HW,2013-03-14 23:38:00,
2013-03-14 23:43:00,40.5,38.1,29.58,NW,315,1.3,1.3,91,0.00,,,0.12,WUHU216HW,2013-03-14 23:43:00,
2013-03-14 23:48:00,40.5,38.1,29.58,North,0,0.7,1.3,91,0.00,,,0.12,WUHU216HW,2013-03-14 23:48:00,
2013-03-14 23:53:00,40.5,38.1,29.58,South,180,0.7,1.3,91,0.00,,,0.12,WUHU216HW,2013-03-14 23:53:00,
2013-03-14 23:58:00,40.5,38.1,29.58,SSE,158,0.4,0.7,91,0.00,,,0.12,WUHU216HW,2013-03-14 23:58:00,